createdAt,value
2022-11-16T00:04:22.328Z,0.4
2022-11-16T00:09:29.437Z,0.4
2022-11-16T00:15:06.321Z,0.5
2022-11-16T00:20:27.871Z,0.6
2022-11-16T00:26:04.460Z,0.6
2022-11-16T00:31:26.849Z,0.7
2022-11-16T00:36:49.105Z,0.7
2022-11-16T00:42:10.915Z,0.7
2022-11-16T00:47:47.713Z,0.7
2022-11-16T00:53:25.709Z,0.7
2022-11-16T00:59:02.295Z,0.7
2022-11-16T01:03:53.083Z,0.7
2022-11-16T01:09:31.763Z,0.6
2022-11-16T01:14:53.147Z,0.5
2022-11-16T01:20:31.168Z,0.4
2022-11-16T01:25:53.423Z,0.3
2022-11-16T01:31:30.056Z,0.2
2022-11-16T01:37:06.864Z,0.1
2022-11-16T01:42:45.388Z,0.1
2022-11-16T01:48:21.925Z,0.1
2022-11-16T01:53:28.910Z,0.1
2022-11-16T01:58:19.680Z,0.1
2022-11-16T02:03:41.960Z,0.1
2022-11-16T02:09:18.981Z,0.1
2022-11-16T02:14:25.201Z,0.1
2022-11-16T02:20:02.891Z,0.2
2022-11-16T02:25:39.712Z,0.3
2022-11-16T02:31:17.221Z,0.3
2022-11-16T02:36:53.700Z,0.3
2022-11-16T02:42:16.161Z,0.4
2022-11-16T02:47:36.831Z,0.4
2022-11-16T02:52:43.742Z,0.4
2022-11-16T02:58:20.616Z,0.5
2022-11-16T03:04:01.415Z,0.6
2022-11-16T03:09:37.735Z,0.6
2022-11-16T03:15:14.762Z,0.6
2022-11-16T03:20:53.146Z,0.8
2022-11-16T03:26:29.255Z,0.8
2022-11-16T03:31:52.578Z,0.9
2022-11-16T03:37:29.713Z,0.9
2022-11-16T03:42:51.125Z,0.9
2022-11-16T03:48:12.938Z,0.9
2022-11-16T03:53:34.861Z,0.9
2022-11-16T03:58:44.845Z,1
2022-11-16T04:04:06.827Z,1.1
2022-11-16T04:09:44.907Z,1.1
2022-11-16T04:15:22.005Z,1.1
2022-11-16T04:20:57.845Z,1.1
2022-11-16T04:26:19.685Z,1.2
2022-11-16T04:31:57.102Z,1.3
2022-11-16T04:37:34.514Z,1.3
2022-11-16T04:43:12.170Z,1.4
2022-11-16T04:48:33.929Z,1.4
2022-11-16T04:54:10.987Z,1.4
2022-11-16T04:59:02.480Z,1.4
2022-11-16T05:04:30.658Z,1.4
2022-11-16T05:09:55.185Z,1.5
2022-11-16T05:15:17.163Z,1.6
2022-11-16T05:20:38.568Z,1.6
2022-11-16T05:26:00.478Z,1.6
2022-11-16T05:31:07.695Z,1.7
2022-11-16T05:36:13.899Z,1.8
2022-11-16T05:41:35.858Z,1.8
2022-11-16T05:47:12.060Z,1.9
2022-11-16T05:52:49.766Z,1.9
2022-11-16T05:58:11.413Z,2
2022-11-16T06:03:33.437Z,2.1
2022-11-16T06:09:12.593Z,2.1
2022-11-16T06:14:49.151Z,2.3
2022-11-16T06:20:45.818Z,2.3
2022-11-16T06:26:23.805Z,2.4
2022-11-16T06:31:50.759Z,2.6
2022-11-16T06:37:36.162Z,2.8
2022-11-16T06:43:14.250Z,2.9
2022-11-16T06:48:51.948Z,3.1
2022-11-16T06:55:31.264Z,3.4
2022-11-16T07:01:12.780Z,3.6
2022-11-16T07:06:50.292Z,4
2022-11-16T07:12:33.680Z,4.4
2022-11-16T07:18:14.943Z,4.9
2022-11-16T07:23:21.856Z,5.4
2022-11-16T07:29:06.003Z,5.9
2022-11-16T07:34:44.167Z,6.3
2022-11-16T07:40:22.120Z,6.7
2022-11-16T07:46:00.343Z,7.3
2022-11-16T07:52:09.064Z,8.1
2022-11-16T07:57:50.415Z,8.9
2022-11-16T08:03:36.863Z,9.8
2022-11-16T08:09:16.416Z,10.8
2022-11-16T08:14:38.841Z,11.8
2022-11-16T08:20:18.622Z,12.8
2022-11-16T08:26:00.231Z,13.8
2022-11-16T08:31:37.837Z,14.9
2022-11-16T08:37:08.427Z,16
2022-11-16T08:42:47.218Z,17.1
2022-11-16T08:48:20.969Z,18
2022-11-16T08:55:22.100Z,18.9
2022-11-16T09:01:01.286Z,19.6
2022-11-16T09:06:39.542Z,20.3
2022-11-16T09:19:22.072Z,21.9
2022-11-16T09:25:00.844Z,23.6
2022-11-16T09:30:39.854Z,26.1
2022-11-16T09:36:03.140Z,29.3
2022-11-16T09:43:42.542Z,38.5
2022-11-16T09:49:34.788Z,45.8
2022-11-16T09:56:38.157Z,50.4
2022-11-16T10:02:24.836Z,41.1
2022-11-16T10:08:08.960Z,43.4
2022-11-16T10:13:46.908Z,50.6
2022-11-16T10:19:26.248Z,52.1
2022-11-16T10:25:05.730Z,47.4
2022-11-16T10:30:32.215Z,48.3
2022-11-16T10:36:02.975Z,49.4
2022-11-16T10:41:43.097Z,50.4
2022-11-16T10:46:57.706Z,50.4
2022-11-16T10:52:40.686Z,50.4
2022-11-16T10:58:25.937Z,46.6
2022-11-16T11:04:12.221Z,42.9
2022-11-16T11:09:53.861Z,45.1
2022-11-16T11:15:40.397Z,51.2
2022-11-16T11:21:20.152Z,51.6
2022-11-16T11:27:34.550Z,47.1
2022-11-16T11:33:19.670Z,42.4
2022-11-16T11:46:11.419Z,37.2
2022-11-16T11:53:02.309Z,33.9
2022-11-16T11:58:29.436Z,31.9
2022-11-16T12:04:13.303Z,30.4
2022-11-16T12:09:37.520Z,28.4
2022-11-16T12:15:23.106Z,26.8
2022-11-16T12:21:01.216Z,25.2
2022-11-16T12:26:46.971Z,23.9
2022-11-16T12:32:27.818Z,23
2022-11-16T12:38:06.264Z,22.1
2022-11-16T12:43:49.181Z,21.5
2022-11-16T12:49:30.990Z,21
2022-11-16T12:55:47.358Z,20.8
2022-11-16T13:01:10.508Z,20.7
2022-11-16T13:06:49.294Z,20.7
2022-11-16T13:12:32.809Z,20.6
2022-11-16T13:18:43.071Z,20.4
2022-11-16T13:24:27.655Z,20.1
2022-11-16T13:30:06.551Z,19.9
2022-11-16T13:35:52.204Z,19.8
2022-11-16T13:41:30.384Z,19.4
2022-11-16T13:47:49.475Z,19.1
2022-11-16T13:55:19.785Z,18.6
2022-11-16T14:01:01.951Z,18.2
2022-11-16T14:06:43.728Z,17.6
2022-11-16T14:12:09.198Z,17.3
2022-11-16T14:23:17.013Z,16.7
2022-11-16T14:28:59.784Z,16.3
2022-11-16T14:34:43.096Z,15.9
2022-11-16T14:40:21.265Z,15.5
2022-11-16T14:45:56.652Z,15.1
2022-11-16T14:51:36.701Z,14.8
2022-11-16T14:57:14.942Z,14.4
2022-11-16T15:02:57.770Z,14.1
2022-11-16T15:08:24.641Z,13.7
2022-11-16T15:13:46.809Z,13.4
2022-11-16T15:19:30.391Z,13.1
2022-11-16T15:25:06.200Z,12.8
2022-11-16T15:30:34.818Z,12.5
2022-11-16T15:36:17.740Z,12.2
2022-11-16T15:42:00.538Z,11.9
2022-11-16T15:48:08.372Z,11.6
2022-11-16T15:53:20.453Z,11.4
2022-11-16T15:58:44.278Z,11.2
2022-11-16T16:04:22.928Z,11
2022-11-16T16:09:45.828Z,10.8
2022-11-16T16:14:53.360Z,10.6
2022-11-16T16:20:21.643Z,10.4
2022-11-16T16:26:06.548Z,10.3
2022-11-16T16:31:13.835Z,10.1
2022-11-16T16:42:04.414Z,9.9
2022-11-16T16:47:46.808Z,9.8
2022-11-16T16:53:18.370Z,9.7
2022-11-16T16:58:30.547Z,9.6
2022-11-16T17:04:00.487Z,9.5
2022-11-16T17:09:27.926Z,9.3
2022-11-16T17:14:54.820Z,9.3
2022-11-16T17:20:26.166Z,9.2
2022-11-16T17:25:52.774Z,9.1
2022-11-16T17:31:33.519Z,9
2022-11-16T17:36:45.421Z,8.9
2022-11-16T17:42:25.396Z,8.9
2022-11-16T17:48:07.486Z,8.8
2022-11-16T17:53:20.654Z,8.8
2022-11-16T17:59:05.258Z,8.7
2022-11-16T18:04:48.204Z,8.6
2022-11-16T18:10:36.402Z,8.6
2022-11-16T18:16:24.442Z,8.6
2022-11-16T18:22:03.452Z,8.6
2022-11-16T18:27:42.037Z,8.6
2022-11-16T18:33:20.456Z,8.5
2022-11-16T18:38:28.386Z,8.5
2022-11-16T18:43:40.585Z,8.5
2022-11-16T18:49:18.667Z,8.4
2022-11-16T18:55:01.870Z,8.4
2022-11-16T19:00:55.760Z,8.4
2022-11-16T19:06:37.103Z,8.4
2022-11-16T19:12:06.425Z,8.4
2022-11-16T19:18:20.768Z,8.4
2022-11-16T19:23:45.260Z,8.4
2022-11-16T19:29:08.970Z,8.4
2022-11-16T19:34:50.969Z,8.4
2022-11-16T19:40:12.586Z,8.3
2022-11-16T19:45:35.546Z,8.3
2022-11-16T19:51:21.293Z,8.3
2022-11-16T19:56:44.376Z,8.3
2022-11-16T20:02:23.761Z,8.3
2022-11-16T20:08:02.821Z,8.3
2022-11-16T20:13:25.038Z,8.3
2022-11-16T20:19:03.276Z,8.3
2022-11-16T20:24:41.888Z,8.3
2022-11-16T20:30:26.816Z,8.3
2022-11-16T20:35:49.457Z,8.3
2022-11-16T20:41:28.100Z,8.3
2022-11-16T20:46:36.568Z,8.3
2022-11-16T20:52:14.993Z,8.3
2022-11-16T20:57:58.282Z,8.2
2022-11-16T21:03:42.832Z,8.2
2022-11-16T21:09:21.901Z,8.2
2022-11-16T21:15:03.012Z,8.3
2022-11-16T21:21:15.636Z,8.3
2022-11-16T21:26:54.294Z,8.2
2022-11-16T21:32:23.513Z,8.2
2022-11-16T21:38:06.054Z,8.2
2022-11-16T21:43:44.926Z,8.3
2022-11-16T21:48:51.935Z,8.3
2022-11-16T21:55:04.033Z,8.3
2022-11-16T22:00:26.998Z,8.3
2022-11-16T22:06:10.393Z,8.3
2022-11-16T22:11:34.277Z,8.3
2022-11-16T22:17:12.262Z,8.3
2022-11-16T22:22:35.332Z,8.3
2022-11-16T22:28:31.359Z,8.3
2022-11-16T22:34:13.601Z,8.3
2022-11-16T22:39:52.176Z,8.3
2022-11-16T22:45:34.441Z,8.3
2022-11-16T22:51:14.875Z,8.3
2022-11-16T22:56:37.326Z,8.3
2022-11-16T23:02:00.223Z,8.3
2022-11-16T23:07:39.184Z,8.3
2022-11-16T23:13:08.005Z,8.3
2022-11-16T23:18:45.474Z,8.3
2022-11-16T23:24:27.274Z,8.3
2022-11-16T23:30:10.906Z,8.3
2022-11-16T23:35:50.763Z,8.3
2022-11-16T23:41:29.254Z,8.3
2022-11-16T23:46:51.408Z,8.2
2022-11-16T23:52:14.053Z,8.2
2022-11-16T23:57:37.285Z,8.2
